Terminal Aerodrome Forecast
Issued by NWS Medford, OR

Current Version | Previous Version | Text Only | Print | Product List | Glossary On
Versions: 1 2 3 4 5 6 7 8 9 10 11 12 13 14 15 16 17
000
FTUS46 KMFR 122300
TAFMFR
TAF
KMFR 122322Z 1300/1324 33010KT P6SM SKC
     FM130300 VRB03KT P6SM SCT050 BKN100
     FM132100 33008KT P6SM BKN050 OVC100=

USA.gov is the U.S. government's official web portal to all federal, state and local government web resources and services.